sensor_id;sensor_type;location;lat;lon;timestamp;P1;durP1;ratioP1;P2;durP2;ratioP2
15913;SDS011;8055;51.930;8.840;2023-10-31T00:01:55;4.90;;;1.70;;
15913;SDS011;8055;51.930;8.840;2023-10-31T00:04:20;2.53;;;1.30;;
15913;SDS011;8055;51.930;8.840;2023-10-31T00:06:46;2.80;;;1.30;;
15913;SDS011;8055;51.930;8.840;2023-10-31T00:09:11;4.78;;;1.75;;
15913;SDS011;8055;51.930;8.840;2023-10-31T00:11:36;2.22;;;1.25;;
15913;SDS011;8055;51.930;8.840;2023-10-31T00:14:02;1.48;;;1.17;;
15913;SDS011;8055;51.930;8.840;2023-10-31T00:16:28;4.82;;;1.73;;
15913;SDS011;8055;51.930;8.840;2023-10-31T00:18:53;3.05;;;1.23;;
15913;SDS011;8055;51.930;8.840;2023-10-31T00:21:18;2.70;;;1.33;;
15913;SDS011;8055;51.930;8.840;2023-10-31T00:23:44;2.75;;;1.75;;
15913;SDS011;8055;51.930;8.840;2023-10-31T00:26:11;2.95;;;1.25;;
15913;SDS011;8055;51.930;8.840;2023-10-31T00:28:36;1.75;;;1.45;;
15913;SDS011;8055;51.930;8.840;2023-10-31T00:31:02;1.40;;;1.27;;
15913;SDS011;8055;51.930;8.840;2023-10-31T00:33:29;1.67;;;1.40;;
15913;SDS011;8055;51.930;8.840;2023-10-31T00:35:54;2.53;;;1.25;;
15913;SDS011;8055;51.930;8.840;2023-10-31T00:38:20;1.80;;;1.30;;
15913;SDS011;8055;51.930;8.840;2023-10-31T00:40:45;3.20;;;1.30;;
15913;SDS011;8055;51.930;8.840;2023-10-31T00:43:10;1.55;;;1.15;;
15913;SDS011;8055;51.930;8.840;2023-10-31T00:45:36;3.00;;;1.15;;
15913;SDS011;8055;51.930;8.840;2023-10-31T00:48:01;1.70;;;1.20;;
15913;SDS011;8055;51.930;8.840;2023-10-31T00:50:26;2.60;;;1.15;;
15913;SDS011;8055;51.930;8.840;2023-10-31T00:52:52;2.72;;;1.13;;
15913;SDS011;8055;51.930;8.840;2023-10-31T00:55:17;4.90;;;1.25;;
15913;SDS011;8055;51.930;8.840;2023-10-31T00:57:42;1.27;;;1.17;;
15913;SDS011;8055;51.930;8.840;2023-10-31T01:00:08;1.88;;;1.23;;
15913;SDS011;8055;51.930;8.840;2023-10-31T01:02:34;2.88;;;1.20;;
15913;SDS011;8055;51.930;8.840;2023-10-31T01:05:00;1.65;;;1.30;;
15913;SDS011;8055;51.930;8.840;2023-10-31T01:07:25;1.75;;;1.00;;
15913;SDS011;8055;51.930;8.840;2023-10-31T01:09:51;1.45;;;1.25;;
15913;SDS011;8055;51.930;8.840;2023-10-31T01:12:16;3.67;;;1.27;;
15913;SDS011;8055;51.930;8.840;2023-10-31T01:14:41;2.40;;;1.20;;
15913;SDS011;8055;51.930;8.840;2023-10-31T01:17:07;3.05;;;1.40;;
15913;SDS011;8055;51.930;8.840;2023-10-31T01:19:32;2.55;;;1.30;;
15913;SDS011;8055;51.930;8.840;2023-10-31T01:21:57;1.30;;;1.10;;
15913;SDS011;8055;51.930;8.840;2023-10-31T01:24:23;2.00;;;1.30;;
15913;SDS011;8055;51.930;8.840;2023-10-31T01:26:49;3.22;;;1.30;;
15913;SDS011;8055;51.930;8.840;2023-10-31T01:29:14;2.13;;;1.40;;
15913;SDS011;8055;51.930;8.840;2023-10-31T01:31:43;1.83;;;1.05;;
15913;SDS011;8055;51.930;8.840;2023-10-31T01:34:08;3.80;;;1.30;;
15913;SDS011;8055;51.930;8.840;2023-10-31T01:36:34;2.38;;;1.38;;
15913;SDS011;8055;51.930;8.840;2023-10-31T01:38:59;2.90;;;1.23;;
15913;SDS011;8055;51.930;8.840;2023-10-31T01:41:25;2.50;;;1.38;;
15913;SDS011;8055;51.930;8.840;2023-10-31T01:43:50;1.77;;;1.38;;
15913;SDS011;8055;51.930;8.840;2023-10-31T01:46:15;1.63;;;1.50;;
15913;SDS011;8055;51.930;8.840;2023-10-31T01:48:41;1.80;;;1.35;;
15913;SDS011;8055;51.930;8.840;2023-10-31T01:51:07;1.20;;;1.10;;
15913;SDS011;8055;51.930;8.840;2023-10-31T01:53:34;1.73;;;1.50;;
15913;SDS011;8055;51.930;8.840;2023-10-31T01:56:01;5.60;;;1.30;;
15913;SDS011;8055;51.930;8.840;2023-10-31T01:58:31;1.73;;;1.63;;
15913;SDS011;8055;51.930;8.840;2023-10-31T02:00:59;2.50;;;1.80;;
15913;SDS011;8055;51.930;8.840;2023-10-31T02:03:25;4.38;;;2.25;;
15913;SDS011;8055;51.930;8.840;2023-10-31T02:05:54;5.97;;;3.30;;
15913;SDS011;8055;51.930;8.840;2023-10-31T02:08:20;3.80;;;3.40;;
15913;SDS011;8055;51.930;8.840;2023-10-31T02:10:46;6.68;;;4.07;;
15913;SDS011;8055;51.930;8.840;2023-10-31T02:13:12;5.15;;;4.65;;
15913;SDS011;8055;51.930;8.840;2023-10-31T02:15:38;6.20;;;4.55;;
15913;SDS011;8055;51.930;8.840;2023-10-31T02:18:04;5.20;;;4.70;;
15913;SDS011;8055;51.930;8.840;2023-10-31T02:20:30;5.18;;;4.70;;
15913;SDS011;8055;51.930;8.840;2023-10-31T02:22:55;5.10;;;4.60;;
15913;SDS011;8055;51.930;8.840;2023-10-31T02:25:20;4.65;;;4.25;;
15913;SDS011;8055;51.930;8.840;2023-10-31T02:27:46;4.75;;;4.35;;
15913;SDS011;8055;51.930;8.840;2023-10-31T02:30:11;4.80;;;4.30;;
15913;SDS011;8055;51.930;8.840;2023-10-31T02:32:37;4.50;;;4.10;;
15913;SDS011;8055;51.930;8.840;2023-10-31T02:35:03;5.97;;;4.35;;
15913;SDS011;8055;51.930;8.840;2023-10-31T02:37:28;5.22;;;4.22;;
15913;SDS011;8055;51.930;8.840;2023-10-31T02:39:54;6.40;;;4.32;;
15913;SDS011;8055;51.930;8.840;2023-10-31T02:42:19;6.07;;;4.68;;
15913;SDS011;8055;51.930;8.840;2023-10-31T02:44:45;4.63;;;4.22;;
15913;SDS011;8055;51.930;8.840;2023-10-31T02:47:10;4.63;;;4.25;;
15913;SDS011;8055;51.930;8.840;2023-10-31T02:49:35;9.45;;;4.47;;
15913;SDS011;8055;51.930;8.840;2023-10-31T02:52:01;4.75;;;4.35;;
15913;SDS011;8055;51.930;8.840;2023-10-31T02:54:26;5.20;;;4.70;;
15913;SDS011;8055;51.930;8.840;2023-10-31T02:56:51;4.00;;;3.70;;
15913;SDS011;8055;51.930;8.840;2023-10-31T02:59:17;4.65;;;4.25;;
15913;SDS011;8055;51.930;8.840;2023-10-31T03:01:42;4.68;;;4.00;;
15913;SDS011;8055;51.930;8.840;2023-10-31T03:04:07;3.70;;;3.38;;
15913;SDS011;8055;51.930;8.840;2023-10-31T03:06:33;3.47;;;3.17;;
15913;SDS011;8055;51.930;8.840;2023-10-31T03:08:58;4.25;;;3.22;;
15913;SDS011;8055;51.930;8.840;2023-10-31T03:11:24;4.93;;;3.00;;
15913;SDS011;8055;51.930;8.840;2023-10-31T03:13:50;4.18;;;3.78;;
15913;SDS011;8055;51.930;8.840;2023-10-31T03:16:16;3.85;;;3.53;;
15913;SDS011;8055;51.930;8.840;2023-10-31T03:18:41;4.05;;;3.75;;
15913;SDS011;8055;51.930;8.840;2023-10-31T03:21:07;3.33;;;3.03;;
15913;SDS011;8055;51.930;8.840;2023-10-31T03:23:32;4.57;;;3.20;;
15913;SDS011;8055;51.930;8.840;2023-10-31T03:25:58;3.10;;;2.90;;
15913;SDS011;8055;51.930;8.840;2023-10-31T03:28:23;3.53;;;3.10;;
15913;SDS011;8055;51.930;8.840;2023-10-31T03:30:49;2.55;;;2.35;;
15913;SDS011;8055;51.930;8.840;2023-10-31T03:33:15;3.53;;;2.35;;
15913;SDS011;8055;51.930;8.840;2023-10-31T03:35:44;2.90;;;2.50;;
15913;SDS011;8055;51.930;8.840;2023-10-31T03:38:09;2.05;;;1.95;;
15913;SDS011;8055;51.930;8.840;2023-10-31T03:40:35;2.35;;;1.88;;
15913;SDS011;8055;51.930;8.840;2023-10-31T03:43:00;2.72;;;2.40;;
15913;SDS011;8055;51.930;8.840;2023-10-31T03:45:26;2.42;;;2.22;;
15913;SDS011;8055;51.930;8.840;2023-10-31T03:47:51;2.75;;;2.55;;
15913;SDS011;8055;51.930;8.840;2023-10-31T03:50:16;2.78;;;2.45;;
15913;SDS011;8055;51.930;8.840;2023-10-31T03:52:42;2.50;;;2.30;;
15913;SDS011;8055;51.930;8.840;2023-10-31T03:55:08;2.00;;;1.90;;
15913;SDS011;8055;51.930;8.840;2023-10-31T03:57:33;2.83;;;1.92;;
15913;SDS011;8055;51.930;8.840;2023-10-31T03:59:58;3.10;;;1.70;;
15913;SDS011;8055;51.930;8.840;2023-10-31T04:02:24;2.33;;;1.73;;
15913;SDS011;8055;51.930;8.840;2023-10-31T04:04:49;2.28;;;1.85;;
15913;SDS011;8055;51.930;8.840;2023-10-31T04:07:14;5.53;;;1.95;;
15913;SDS011;8055;51.930;8.840;2023-10-31T04:09:40;2.03;;;1.73;;
15913;SDS011;8055;51.930;8.840;2023-10-31T04:12:05;1.70;;;1.60;;
15913;SDS011;8055;51.930;8.840;2023-10-31T04:14:31;3.13;;;1.70;;
15913;SDS011;8055;51.930;8.840;2023-10-31T04:16:56;2.88;;;2.08;;
15913;SDS011;8055;51.930;8.840;2023-10-31T04:19:21;1.90;;;1.70;;
15913;SDS011;8055;51.930;8.840;2023-10-31T04:21:47;2.33;;;1.90;;
15913;SDS011;8055;51.930;8.840;2023-10-31T04:24:12;4.20;;;2.00;;
15913;SDS011;8055;51.930;8.840;2023-10-31T04:26:39;3.33;;;2.10;;
15913;SDS011;8055;51.930;8.840;2023-10-31T04:29:06;3.08;;;1.83;;
15913;SDS011;8055;51.930;8.840;2023-10-31T04:31:31;4.38;;;1.95;;
15913;SDS011;8055;51.930;8.840;2023-10-31T04:33:56;4.80;;;2.50;;
15913;SDS011;8055;51.930;8.840;2023-10-31T04:36:22;2.50;;;1.92;;
15913;SDS011;8055;51.930;8.840;2023-10-31T04:38:47;3.60;;;2.50;;
15913;SDS011;8055;51.930;8.840;2023-10-31T04:41:12;2.42;;;2.15;;
15913;SDS011;8055;51.930;8.840;2023-10-31T04:43:38;4.60;;;2.50;;
15913;SDS011;8055;51.930;8.840;2023-10-31T04:46:06;3.28;;;2.72;;
15913;SDS011;8055;51.930;8.840;2023-10-31T04:48:32;3.67;;;2.90;;
15913;SDS011;8055;51.930;8.840;2023-10-31T04:50:58;5.90;;;3.05;;
15913;SDS011;8055;51.930;8.840;2023-10-31T04:53:23;3.60;;;3.20;;
15913;SDS011;8055;51.930;8.840;2023-10-31T04:55:49;4.55;;;3.53;;
15913;SDS011;8055;51.930;8.840;2023-10-31T04:58:14;4.07;;;3.67;;
15913;SDS011;8055;51.930;8.840;2023-10-31T05:00:39;3.47;;;3.17;;
15913;SDS011;8055;51.930;8.840;2023-10-31T05:03:05;4.35;;;3.40;;
15913;SDS011;8055;51.930;8.840;2023-10-31T05:05:31;4.93;;;3.97;;
15913;SDS011;8055;51.930;8.840;2023-10-31T05:07:57;6.13;;;5.10;;
15913;SDS011;8055;51.930;8.840;2023-10-31T05:10:23;9.10;;;5.50;;
15913;SDS011;8055;51.930;8.840;2023-10-31T05:12:48;7.55;;;5.85;;
15913;SDS011;8055;51.930;8.840;2023-10-31T05:15:14;6.70;;;6.00;;
15913;SDS011;8055;51.930;8.840;2023-10-31T05:17:39;8.70;;;6.75;;
15913;SDS011;8055;51.930;8.840;2023-10-31T05:20:04;8.68;;;7.15;;
15913;SDS011;8055;51.930;8.840;2023-10-31T05:22:30;9.38;;;7.22;;
15913;SDS011;8055;51.930;8.840;2023-10-31T05:24:55;12.10;;;8.40;;
15913;SDS011;8055;51.930;8.840;2023-10-31T05:27:21;10.40;;;8.25;;
15913;SDS011;8055;51.930;8.840;2023-10-31T05:29:46;10.02;;;8.93;;
15913;SDS011;8055;51.930;8.840;2023-10-31T05:32:11;12.18;;;8.70;;
15913;SDS011;8055;51.930;8.840;2023-10-31T05:34:37;10.60;;;8.55;;
15913;SDS011;8055;51.930;8.840;2023-10-31T05:37:02;11.38;;;8.80;;
15913;SDS011;8055;51.930;8.840;2023-10-31T05:39:31;13.93;;;9.82;;
15913;SDS011;8055;51.930;8.840;2023-10-31T05:41:56;12.60;;;9.75;;
15913;SDS011;8055;51.930;8.840;2023-10-31T05:44:21;10.07;;;8.98;;
15913;SDS011;8055;51.930;8.840;2023-10-31T05:46:47;11.50;;;9.68;;
15913;SDS011;8055;51.930;8.840;2023-10-31T05:49:12;11.52;;;8.95;;
15913;SDS011;8055;51.930;8.840;2023-10-31T05:51:38;12.38;;;8.98;;
15913;SDS011;8055;51.930;8.840;2023-10-31T05:54:03;13.57;;;11.13;;
15913;SDS011;8055;51.930;8.840;2023-10-31T05:56:31;14.40;;;9.95;;
15913;SDS011;8055;51.930;8.840;2023-10-31T05:58:57;11.25;;;9.68;;
15913;SDS011;8055;51.930;8.840;2023-10-31T06:01:22;15.13;;;11.13;;
15913;SDS011;8055;51.930;8.840;2023-10-31T06:03:47;12.75;;;10.52;;
15913;SDS011;8055;51.930;8.840;2023-10-31T06:06:13;17.80;;;12.30;;
15913;SDS011;8055;51.930;8.840;2023-10-31T06:08:39;14.65;;;11.40;;
15913;SDS011;8055;51.930;8.840;2023-10-31T06:11:04;15.45;;;12.43;;
15913;SDS011;8055;51.930;8.840;2023-10-31T06:13:30;16.48;;;13.32;;
15913;SDS011;8055;51.930;8.840;2023-10-31T06:15:56;16.67;;;12.60;;
15913;SDS011;8055;51.930;8.840;2023-10-31T06:18:25;16.83;;;13.20;;
15913;SDS011;8055;51.930;8.840;2023-10-31T06:20:52;16.25;;;12.80;;
15913;SDS011;8055;51.930;8.840;2023-10-31T06:23:18;17.55;;;13.05;;
15913;SDS011;8055;51.930;8.840;2023-10-31T06:25:43;18.33;;;13.15;;
15913;SDS011;8055;51.930;8.840;2023-10-31T06:28:09;15.55;;;11.88;;
15913;SDS011;8055;51.930;8.840;2023-10-31T06:30:34;17.75;;;11.40;;
15913;SDS011;8055;51.930;8.840;2023-10-31T06:32:59;14.55;;;11.77;;
15913;SDS011;8055;51.930;8.840;2023-10-31T06:35:28;15.23;;;11.13;;
15913;SDS011;8055;51.930;8.840;2023-10-31T06:37:54;15.85;;;11.32;;
15913;SDS011;8055;51.930;8.840;2023-10-31T06:40:22;12.95;;;10.18;;
15913;SDS011;8055;51.930;8.840;2023-10-31T06:42:48;12.75;;;10.38;;
15913;SDS011;8055;51.930;8.840;2023-10-31T06:45:13;13.88;;;10.52;;
15913;SDS011;8055;51.930;8.840;2023-10-31T06:47:39;14.02;;;10.75;;
15913;SDS011;8055;51.930;8.840;2023-10-31T06:50:05;16.58;;;10.77;;
15913;SDS011;8055;51.930;8.840;2023-10-31T06:52:32;11.88;;;9.48;;
15913;SDS011;8055;51.930;8.840;2023-10-31T06:54:58;12.05;;;9.10;;
15913;SDS011;8055;51.930;8.840;2023-10-31T06:57:23;11.45;;;9.13;;
15913;SDS011;8055;51.930;8.840;2023-10-31T06:59:48;10.95;;;8.60;;
15913;SDS011;8055;51.930;8.840;2023-10-31T07:02:14;13.07;;;8.73;;
15913;SDS011;8055;51.930;8.840;2023-10-31T07:04:39;10.63;;;8.70;;
15913;SDS011;8055;51.930;8.840;2023-10-31T07:07:05;12.75;;;9.23;;
15913;SDS011;8055;51.930;8.840;2023-10-31T07:09:31;12.18;;;9.27;;
15913;SDS011;8055;51.930;8.840;2023-10-31T07:11:56;13.23;;;9.43;;
15913;SDS011;8055;51.930;8.840;2023-10-31T07:14:21;10.80;;;9.02;;
15913;SDS011;8055;51.930;8.840;2023-10-31T07:16:47;17.35;;;9.48;;
15913;SDS011;8055;51.930;8.840;2023-10-31T07:19:13;14.07;;;9.88;;
15913;SDS011;8055;51.930;8.840;2023-10-31T07:21:39;12.23;;;10.32;;
15913;SDS011;8055;51.930;8.840;2023-10-31T07:24:05;12.85;;;10.20;;
15913;SDS011;8055;51.930;8.840;2023-10-31T07:26:33;15.80;;;10.68;;
15913;SDS011;8055;51.930;8.840;2023-10-31T07:28:59;14.50;;;10.13;;
15913;SDS011;8055;51.930;8.840;2023-10-31T07:31:24;12.85;;;9.77;;
15913;SDS011;8055;51.930;8.840;2023-10-31T07:33:50;10.88;;;9.02;;
15913;SDS011;8055;51.930;8.840;2023-10-31T07:36:16;13.55;;;10.05;;
15913;SDS011;8055;51.930;8.840;2023-10-31T07:38:41;13.90;;;10.30;;
15913;SDS011;8055;51.930;8.840;2023-10-31T07:41:06;10.77;;;8.65;;
15913;SDS011;8055;51.930;8.840;2023-10-31T07:43:32;13.63;;;9.63;;
15913;SDS011;8055;51.930;8.840;2023-10-31T07:45:57;12.50;;;8.93;;
15913;SDS011;8055;51.930;8.840;2023-10-31T07:48:23;11.27;;;8.02;;
15913;SDS011;8055;51.930;8.840;2023-10-31T07:50:48;18.13;;;10.23;;
15913;SDS011;8055;51.930;8.840;2023-10-31T07:53:13;14.13;;;10.25;;
15913;SDS011;8055;51.930;8.840;2023-10-31T07:55:39;10.90;;;8.10;;
15913;SDS011;8055;51.930;8.840;2023-10-31T07:58:04;9.30;;;6.68;;
15913;SDS011;8055;51.930;8.840;2023-10-31T08:00:30;5.72;;;4.85;;
15913;SDS011;8055;51.930;8.840;2023-10-31T08:02:56;6.45;;;4.28;;
15913;SDS011;8055;51.930;8.840;2023-10-31T08:05:21;4.65;;;3.42;;
15913;SDS011;8055;51.930;8.840;2023-10-31T08:07:47;5.68;;;3.60;;
15913;SDS011;8055;51.930;8.840;2023-10-31T08:10:13;4.93;;;3.70;;
15913;SDS011;8055;51.930;8.840;2023-10-31T08:12:39;5.90;;;4.10;;
15913;SDS011;8055;51.930;8.840;2023-10-31T08:15:04;4.93;;;3.72;;
15913;SDS011;8055;51.930;8.840;2023-10-31T08:17:30;7.05;;;3.90;;
15913;SDS011;8055;51.930;8.840;2023-10-31T08:19:56;5.93;;;4.32;;
15913;SDS011;8055;51.930;8.840;2023-10-31T08:22:21;6.43;;;3.67;;
15913;SDS011;8055;51.930;8.840;2023-10-31T08:24:47;6.03;;;3.00;;
15913;SDS011;8055;51.930;8.840;2023-10-31T08:27:13;4.13;;;2.83;;
15913;SDS011;8055;51.930;8.840;2023-10-31T08:29:38;5.82;;;3.22;;
15913;SDS011;8055;51.930;8.840;2023-10-31T08:32:04;6.10;;;3.80;;
15913;SDS011;8055;51.930;8.840;2023-10-31T08:34:30;7.60;;;3.80;;
15913;SDS011;8055;51.930;8.840;2023-10-31T08:36:55;3.92;;;3.20;;
15913;SDS011;8055;51.930;8.840;2023-10-31T08:39:22;5.07;;;3.70;;
15913;SDS011;8055;51.930;8.840;2023-10-31T08:44:20;4.35;;;3.60;;
15913;SDS011;8055;51.930;8.840;2023-10-31T08:46:45;4.78;;;3.67;;
15913;SDS011;8055;51.930;8.840;2023-10-31T08:49:12;3.80;;;3.33;;
15913;SDS011;8055;51.930;8.840;2023-10-31T08:51:37;5.72;;;3.83;;
15913;SDS011;8055;51.930;8.840;2023-10-31T08:54:03;4.63;;;3.80;;
15913;SDS011;8055;51.930;8.840;2023-10-31T08:56:28;4.63;;;3.88;;
15913;SDS011;8055;51.930;8.840;2023-10-31T08:58:53;5.30;;;3.83;;
15913;SDS011;8055;51.930;8.840;2023-10-31T09:01:19;5.22;;;4.35;;
15913;SDS011;8055;51.930;8.840;2023-10-31T09:03:45;5.60;;;3.92;;
15913;SDS011;8055;51.930;8.840;2023-10-31T09:06:10;6.82;;;4.50;;
15913;SDS011;8055;51.930;8.840;2023-10-31T09:08:35;4.97;;;3.97;;
15913;SDS011;8055;51.930;8.840;2023-10-31T09:11:03;6.22;;;4.70;;
15913;SDS011;8055;51.930;8.840;2023-10-31T09:13:29;6.57;;;4.03;;
15913;SDS011;8055;51.930;8.840;2023-10-31T09:15:54;5.32;;;4.07;;
15913;SDS011;8055;51.930;8.840;2023-10-31T09:18:20;4.80;;;3.75;;
15913;SDS011;8055;51.930;8.840;2023-10-31T09:20:45;6.65;;;3.78;;
15913;SDS011;8055;51.930;8.840;2023-10-31T09:23:11;5.60;;;3.72;;
15913;SDS011;8055;51.930;8.840;2023-10-31T09:25:36;6.85;;;3.92;;
15913;SDS011;8055;51.930;8.840;2023-10-31T09:28:02;7.75;;;3.65;;
15913;SDS011;8055;51.930;8.840;2023-10-31T09:30:27;7.60;;;3.63;;
15913;SDS011;8055;51.930;8.840;2023-10-31T09:32:53;3.78;;;2.97;;
15913;SDS011;8055;51.930;8.840;2023-10-31T09:35:18;6.57;;;3.50;;
15913;SDS011;8055;51.930;8.840;2023-10-31T09:37:44;6.20;;;3.42;;
15913;SDS011;8055;51.930;8.840;2023-10-31T09:40:13;5.57;;;3.38;;
15913;SDS011;8055;51.930;8.840;2023-10-31T09:42:39;5.50;;;3.55;;
15913;SDS011;8055;51.930;8.840;2023-10-31T09:45:05;5.70;;;4.55;;
15913;SDS011;8055;51.930;8.840;2023-10-31T09:47:31;8.50;;;5.45;;
15913;SDS011;8055;51.930;8.840;2023-10-31T09:49:57;8.15;;;4.50;;
15913;SDS011;8055;51.930;8.840;2023-10-31T09:52:23;7.15;;;4.78;;
15913;SDS011;8055;51.930;8.840;2023-10-31T09:54:50;8.50;;;5.32;;
15913;SDS011;8055;51.930;8.840;2023-10-31T09:57:17;8.65;;;5.68;;
15913;SDS011;8055;51.930;8.840;2023-10-31T09:59:42;10.43;;;5.80;;
15913;SDS011;8055;51.930;8.840;2023-10-31T10:02:08;8.07;;;6.32;;
15913;SDS011;8055;51.930;8.840;2023-10-31T10:04:33;7.10;;;5.57;;
15913;SDS011;8055;51.930;8.840;2023-10-31T10:07:00;11.05;;;7.25;;
15913;SDS011;8055;51.930;8.840;2023-10-31T10:09:26;8.73;;;6.75;;
15913;SDS011;8055;51.930;8.840;2023-10-31T10:11:52;9.20;;;7.15;;
15913;SDS011;8055;51.930;8.840;2023-10-31T10:14:18;13.63;;;8.15;;
15913;SDS011;8055;51.930;8.840;2023-10-31T10:16:43;10.45;;;7.80;;
15913;SDS011;8055;51.930;8.840;2023-10-31T10:19:16;8.98;;;7.28;;
15913;SDS011;8055;51.930;8.840;2023-10-31T10:21:49;10.82;;;7.53;;
15913;SDS011;8055;51.930;8.840;2023-10-31T10:24:16;13.13;;;8.45;;
15913;SDS011;8055;51.930;8.840;2023-10-31T10:26:43;12.57;;;9.63;;
15913;SDS011;8055;51.930;8.840;2023-10-31T10:29:08;10.45;;;8.23;;
15913;SDS011;8055;51.930;8.840;2023-10-31T10:31:34;14.70;;;10.70;;
15913;SDS011;8055;51.930;8.840;2023-10-31T10:34:00;14.55;;;10.85;;
15913;SDS011;8055;51.930;8.840;2023-10-31T10:36:26;13.70;;;9.65;;
15913;SDS011;8055;51.930;8.840;2023-10-31T10:38:53;11.05;;;9.07;;
15913;SDS011;8055;51.930;8.840;2023-10-31T10:41:21;13.23;;;10.52;;
15913;SDS011;8055;51.930;8.840;2023-10-31T10:43:50;15.15;;;12.48;;
15913;SDS011;8055;51.930;8.840;2023-10-31T10:46:21;13.52;;;11.50;;
15913;SDS011;8055;51.930;8.840;2023-10-31T10:48:50;13.68;;;11.50;;
15913;SDS011;8055;51.930;8.840;2023-10-31T10:51:25;14.20;;;11.38;;
15913;SDS011;8055;51.930;8.840;2023-10-31T10:54:04;13.15;;;11.73;;
15913;SDS011;8055;51.930;8.840;2023-10-31T10:56:37;13.55;;;12.07;;
15913;SDS011;8055;51.930;8.840;2023-10-31T10:59:09;16.15;;;12.68;;
15913;SDS011;8055;51.930;8.840;2023-10-31T11:01:40;16.58;;;13.38;;
15913;SDS011;8055;51.930;8.840;2023-10-31T11:04:06;17.23;;;13.15;;
15913;SDS011;8055;51.930;8.840;2023-10-31T11:06:32;16.58;;;13.85;;
15913;SDS011;8055;51.930;8.840;2023-10-31T11:09:00;15.55;;;13.40;;
15913;SDS011;8055;51.930;8.840;2023-10-31T11:11:26;14.52;;;12.73;;
15913;SDS011;8055;51.930;8.840;2023-10-31T11:13:52;14.23;;;12.75;;
15913;SDS011;8055;51.930;8.840;2023-10-31T11:16:20;16.27;;;12.75;;
15913;SDS011;8055;51.930;8.840;2023-10-31T11:18:57;13.80;;;12.32;;
15913;SDS011;8055;51.930;8.840;2023-10-31T11:21:23;14.07;;;12.63;;
15913;SDS011;8055;51.930;8.840;2023-10-31T11:23:58;15.73;;;13.63;;
15913;SDS011;8055;51.930;8.840;2023-10-31T11:26:27;15.35;;;13.75;;
15913;SDS011;8055;51.930;8.840;2023-10-31T11:29:04;15.65;;;13.85;;
15913;SDS011;8055;51.930;8.840;2023-10-31T11:31:31;16.33;;;13.55;;
15913;SDS011;8055;51.930;8.840;2023-10-31T11:33:59;16.08;;;13.95;;
15913;SDS011;8055;51.930;8.840;2023-10-31T11:36:26;16.30;;;13.35;;
15913;SDS011;8055;51.930;8.840;2023-10-31T11:38:51;13.82;;;12.43;;
15913;SDS011;8055;51.930;8.840;2023-10-31T11:41:37;11.98;;;10.77;;
15913;SDS011;8055;51.930;8.840;2023-10-31T11:44:02;14.88;;;11.48;;
15913;SDS011;8055;51.930;8.840;2023-10-31T11:46:28;11.48;;;10.23;;
15913;SDS011;8055;51.930;8.840;2023-10-31T11:48:54;13.63;;;11.40;;
15913;SDS011;8055;51.930;8.840;2023-10-31T11:51:21;13.52;;;11.88;;
15913;SDS011;8055;51.930;8.840;2023-10-31T11:53:50;12.57;;;11.38;;
15913;SDS011;8055;51.930;8.840;2023-10-31T11:56:16;13.82;;;12.32;;
15913;SDS011;8055;51.930;8.840;2023-10-31T11:58:41;14.73;;;13.02;;
15913;SDS011;8055;51.930;8.840;2023-10-31T12:01:08;17.00;;;13.25;;
15913;SDS011;8055;51.930;8.840;2023-10-31T12:03:38;16.48;;;13.88;;
15913;SDS011;8055;51.930;8.840;2023-10-31T12:06:05;13.98;;;12.50;;
15913;SDS011;8055;51.930;8.840;2023-10-31T12:08:38;14.38;;;12.88;;
15913;SDS011;8055;51.930;8.840;2023-10-31T12:11:11;16.02;;;14.32;;
15913;SDS011;8055;51.930;8.840;2023-10-31T12:13:42;14.73;;;13.10;;
15913;SDS011;8055;51.930;8.840;2023-10-31T12:16:16;15.75;;;13.50;;
15913;SDS011;8055;51.930;8.840;2023-10-31T12:18:43;14.60;;;13.10;;
15913;SDS011;8055;51.930;8.840;2023-10-31T12:21:08;15.40;;;13.75;;
15913;SDS011;8055;51.930;8.840;2023-10-31T12:23:35;14.68;;;13.18;;
15913;SDS011;8055;51.930;8.840;2023-10-31T12:26:01;15.68;;;14.07;;
15913;SDS011;8055;51.930;8.840;2023-10-31T12:28:27;16.63;;;14.82;;
15913;SDS011;8055;51.930;8.840;2023-10-31T12:30:54;16.70;;;14.82;;
15913;SDS011;8055;51.930;8.840;2023-10-31T12:33:21;16.90;;;15.07;;
15913;SDS011;8055;51.930;8.840;2023-10-31T12:35:49;16.98;;;14.85;;
15913;SDS011;8055;51.930;8.840;2023-10-31T12:38:16;16.50;;;14.70;;
15913;SDS011;8055;51.930;8.840;2023-10-31T12:40:45;17.40;;;15.18;;
15913;SDS011;8055;51.930;8.840;2023-10-31T12:43:11;17.45;;;14.88;;
15913;SDS011;8055;51.930;8.840;2023-10-31T12:45:37;16.90;;;13.95;;
15913;SDS011;8055;51.930;8.840;2023-10-31T12:48:06;18.35;;;14.65;;
15913;SDS011;8055;51.930;8.840;2023-10-31T12:50:34;19.52;;;15.02;;
15913;SDS011;8055;51.930;8.840;2023-10-31T12:53:01;20.90;;;14.93;;
15913;SDS011;8055;51.930;8.840;2023-10-31T12:55:28;17.40;;;14.75;;
15913;SDS011;8055;51.930;8.840;2023-10-31T12:57:55;17.55;;;14.70;;
15913;SDS011;8055;51.930;8.840;2023-10-31T13:00:21;16.70;;;14.82;;
15913;SDS011;8055;51.930;8.840;2023-10-31T13:02:51;18.92;;;15.25;;
15913;SDS011;8055;51.930;8.840;2023-10-31T13:05:17;21.98;;;15.10;;
15913;SDS011;8055;51.930;8.840;2023-10-31T13:07:53;19.08;;;14.60;;
15913;SDS011;8055;51.930;8.840;2023-10-31T13:10:21;17.88;;;14.10;;
15913;SDS011;8055;51.930;8.840;2023-10-31T13:12:47;21.23;;;14.38;;
15913;SDS011;8055;51.930;8.840;2023-10-31T13:15:15;17.77;;;14.40;;
15913;SDS011;8055;51.930;8.840;2023-10-31T13:17:43;16.85;;;14.48;;
15913;SDS011;8055;51.930;8.840;2023-10-31T13:20:09;17.83;;;14.27;;
15913;SDS011;8055;51.930;8.840;2023-10-31T13:22:36;22.50;;;15.30;;
15913;SDS011;8055;51.930;8.840;2023-10-31T13:25:03;19.85;;;15.43;;
15913;SDS011;8055;51.930;8.840;2023-10-31T13:27:42;19.17;;;16.08;;
15913;SDS011;8055;51.930;8.840;2023-10-31T13:30:09;18.42;;;16.23;;
15913;SDS011;8055;51.930;8.840;2023-10-31T13:32:36;16.60;;;14.57;;
15913;SDS011;8055;51.930;8.840;2023-10-31T13:35:02;18.50;;;14.93;;
15913;SDS011;8055;51.930;8.840;2023-10-31T13:37:28;17.92;;;13.95;;
15913;SDS011;8055;51.930;8.840;2023-10-31T13:39:53;16.65;;;13.15;;
15913;SDS011;8055;51.930;8.840;2023-10-31T13:42:19;20.48;;;14.52;;
15913;SDS011;8055;51.930;8.840;2023-10-31T13:44:44;19.20;;;13.85;;
15913;SDS011;8055;51.930;8.840;2023-10-31T13:47:10;16.23;;;13.60;;
15913;SDS011;8055;51.930;8.840;2023-10-31T13:49:36;18.48;;;13.32;;
15913;SDS011;8055;51.930;8.840;2023-10-31T13:52:03;17.50;;;13.48;;
15913;SDS011;8055;51.930;8.840;2023-10-31T13:54:29;21.67;;;13.43;;
15913;SDS011;8055;51.930;8.840;2023-10-31T13:56:54;21.00;;;13.40;;
15913;SDS011;8055;51.930;8.840;2023-10-31T13:59:20;18.25;;;13.27;;
15913;SDS011;8055;51.930;8.840;2023-10-31T14:01:45;39.88;;;26.02;;
15913;SDS011;8055;51.930;8.840;2023-10-31T14:04:12;22.92;;;15.32;;
15913;SDS011;8055;51.930;8.840;2023-10-31T14:06:41;18.83;;;14.05;;
15913;SDS011;8055;51.930;8.840;2023-10-31T14:09:07;21.77;;;15.60;;
15913;SDS011;8055;51.930;8.840;2023-10-31T14:11:33;19.67;;;14.38;;
15913;SDS011;8055;51.930;8.840;2023-10-31T14:13:59;19.00;;;14.27;;
15913;SDS011;8055;51.930;8.840;2023-10-31T14:16:28;18.08;;;13.68;;
15913;SDS011;8055;51.930;8.840;2023-10-31T14:18:57;21.88;;;15.77;;
15913;SDS011;8055;51.930;8.840;2023-10-31T14:21:22;19.80;;;13.68;;
15913;SDS011;8055;51.930;8.840;2023-10-31T14:23:47;19.98;;;14.18;;
15913;SDS011;8055;51.930;8.840;2023-10-31T14:26:19;19.33;;;13.93;;
15913;SDS011;8055;51.930;8.840;2023-10-31T14:28:46;33.92;;;30.25;;
15913;SDS011;8055;51.930;8.840;2023-10-31T14:31:11;32.90;;;26.27;;
15913;SDS011;8055;51.930;8.840;2023-10-31T14:33:37;21.85;;;17.13;;
15913;SDS011;8055;51.930;8.840;2023-10-31T14:36:02;22.73;;;16.45;;
15913;SDS011;8055;51.930;8.840;2023-10-31T14:38:28;23.58;;;16.55;;
15913;SDS011;8055;51.930;8.840;2023-10-31T14:40:53;20.85;;;14.77;;
15913;SDS011;8055;51.930;8.840;2023-10-31T14:43:18;22.45;;;14.57;;
15913;SDS011;8055;51.930;8.840;2023-10-31T14:45:44;18.88;;;13.65;;
15913;SDS011;8055;51.930;8.840;2023-10-31T14:48:10;25.75;;;16.77;;